sensor_id;sensor_type;location;lat;lon;timestamp;noise_LAeq;noise_LA_min;noise_LA_max;noise_LA01;noise_LA95
48967;Laerm;46511;53.148;8.204;2023-08-20T00:02:01;44.75;41.53;55.22;;
48967;Laerm;46511;53.148;8.204;2023-08-20T00:04:35;44.12;41.22;48.18;;
48967;Laerm;46511;53.148;8.204;2023-08-20T00:07:02;51.08;41.22;63.91;;
48967;Laerm;46511;53.148;8.204;2023-08-20T00:09:33;47.41;40.71;63.18;;
48967;Laerm;46511;53.148;8.204;2023-08-20T00:12:08;44.96;40.33;56.77;;
48967;Laerm;46511;53.148;8.204;2023-08-20T00:14:59;44.67;41.38;54.33;;
48967;Laerm;46511;53.148;8.204;2023-08-20T00:17:37;47.46;41.06;60.90;;
48967;Laerm;46511;53.148;8.204;2023-08-20T00:20:09;43.26;39.58;49.88;;
48967;Laerm;46511;53.148;8.204;2023-08-20T00:22:44;43.00;39.58;47.24;;
48967;Laerm;46511;53.148;8.204;2023-08-20T00:25:17;43.62;40.80;49.67;;
48967;Laerm;46511;53.148;8.204;2023-08-20T00:27:48;43.16;40.98;47.83;;
48967;Laerm;46511;53.148;8.204;2023-08-20T00:30:20;43.68;41.06;49.51;;
48967;Laerm;46511;53.148;8.204;2023-08-20T00:32:51;43.49;41.06;47.16;;
48967;Laerm;46511;53.148;8.204;2023-08-20T00:35:22;43.12;40.71;46.64;;
48967;Laerm;46511;53.148;8.204;2023-08-20T00:37:49;50.76;40.80;64.32;;
48967;Laerm;46511;53.148;8.204;2023-08-20T00:40:16;43.75;41.14;56.20;;
48967;Laerm;46511;53.148;8.204;2023-08-20T00:42:47;43.90;41.06;61.10;;
48967;Laerm;46511;53.148;8.204;2023-08-20T00:45:18;49.66;39.81;64.31;;
48967;Laerm;46511;53.148;8.204;2023-08-20T00:47:50;43.67;40.80;50.30;;
48967;Laerm;46511;53.148;8.204;2023-08-20T00:50:22;42.96;40.33;49.73;;
48967;Laerm;46511;53.148;8.204;2023-08-20T00:52:54;43.07;40.23;53.21;;
48967;Laerm;46511;53.148;8.204;2023-08-20T00:55:25;47.37;40.33;62.13;;
48967;Laerm;46511;53.148;8.204;2023-08-20T00:57:56;43.09;40.13;50.82;;
48967;Laerm;46511;53.148;8.204;2023-08-20T01:00:28;43.47;40.62;47.84;;
48967;Laerm;46511;53.148;8.204;2023-08-20T01:03:00;43.89;40.89;57.81;;
48967;Laerm;46511;53.148;8.204;2023-08-20T01:05:32;43.97;40.80;59.43;;
48967;Laerm;46511;53.148;8.204;2023-08-20T01:10:53;43.93;39.58;59.18;;
48967;Laerm;46511;53.148;8.204;2023-08-20T01:13:22;44.63;40.03;58.48;;
48967;Laerm;46511;53.148;8.204;2023-08-20T01:15:54;43.01;39.92;47.55;;
48967;Laerm;46511;53.148;8.204;2023-08-20T01:18:25;42.70;38.67;46.23;;
48967;Laerm;46511;53.148;8.204;2023-08-20T01:21:04;43.83;39.08;54.67;;
48967;Laerm;46511;53.148;8.204;2023-08-20T01:23:51;53.83;38.67;68.72;;
48967;Laerm;46511;53.148;8.204;2023-08-20T01:26:48;42.18;38.95;44.80;;
48967;Laerm;46511;53.148;8.204;2023-08-20T01:29:26;49.50;37.70;65.95;;
48967;Laerm;46511;53.148;8.204;2023-08-20T01:31:58;51.11;39.58;64.83;;
48967;Laerm;46511;53.148;8.204;2023-08-20T01:34:30;42.80;39.34;47.55;;
48967;Laerm;46511;53.148;8.204;2023-08-20T01:37:01;42.03;38.37;45.48;;
48967;Laerm;46511;53.148;8.204;2023-08-20T01:39:33;42.16;39.34;45.54;;
48967;Laerm;46511;53.148;8.204;2023-08-20T01:42:05;42.01;38.37;56.94;;
48967;Laerm;46511;53.148;8.204;2023-08-20T01:44:36;46.42;38.52;60.19;;
48967;Laerm;46511;53.148;8.204;2023-08-20T01:47:08;41.92;38.37;49.04;;
48967;Laerm;46511;53.148;8.204;2023-08-20T01:49:39;41.95;38.21;52.88;;
48967;Laerm;46511;53.148;8.204;2023-08-20T01:52:10;41.81;38.67;44.83;;
48967;Laerm;46511;53.148;8.204;2023-08-20T01:54:37;48.61;39.58;63.17;;
48967;Laerm;46511;53.148;8.204;2023-08-20T01:57:08;48.81;39.08;63.61;;
48967;Laerm;46511;53.148;8.204;2023-08-20T01:59:39;42.59;39.34;55.42;;
48967;Laerm;46511;53.148;8.204;2023-08-20T02:02:11;42.58;39.46;51.92;;
48967;Laerm;46511;53.148;8.204;2023-08-20T02:04:42;48.54;38.37;64.21;;
48967;Laerm;46511;53.148;8.204;2023-08-20T02:07:13;48.42;39.70;63.76;;
48967;Laerm;46511;53.148;8.204;2023-08-20T02:09:44;42.40;39.08;45.66;;
48967;Laerm;46511;53.148;8.204;2023-08-20T02:12:16;41.28;37.35;43.60;;
48967;Laerm;46511;53.148;8.204;2023-08-20T02:14:47;41.87;38.67;47.59;;
48967;Laerm;46511;53.148;8.204;2023-08-20T02:17:19;42.00;38.67;45.30;;
48967;Laerm;46511;53.148;8.204;2023-08-20T02:19:50;41.92;38.21;53.42;;
48967;Laerm;46511;53.148;8.204;2023-08-20T02:22:21;42.05;38.52;51.93;;
48967;Laerm;46511;53.148;8.204;2023-08-20T02:24:48;42.25;38.37;44.87;;
48967;Laerm;46511;53.148;8.204;2023-08-20T02:27:19;42.13;38.81;45.54;;
48967;Laerm;46511;53.148;8.204;2023-08-20T02:29:51;42.04;38.37;45.57;;
48967;Laerm;46511;53.148;8.204;2023-08-20T02:32:22;42.07;38.74;45.83;;
48967;Laerm;46511;53.148;8.204;2023-08-20T02:34:54;46.67;38.81;61.46;;
48967;Laerm;46511;53.148;8.204;2023-08-20T02:37:26;41.45;37.32;48.95;;
48967;Laerm;46511;53.148;8.204;2023-08-20T02:39:57;41.91;38.52;45.45;;
48967;Laerm;46511;53.148;8.204;2023-08-20T02:42:28;42.62;39.08;51.00;;
48967;Laerm;46511;53.148;8.204;2023-08-20T02:45:00;42.92;39.08;55.98;;
48967;Laerm;46511;53.148;8.204;2023-08-20T02:47:31;41.88;38.67;44.58;;
48967;Laerm;46511;53.148;8.204;2023-08-20T02:50:02;41.83;37.88;50.07;;
48967;Laerm;46511;53.148;8.204;2023-08-20T02:52:34;41.92;37.88;44.87;;
48967;Laerm;46511;53.148;8.204;2023-08-20T02:55:06;41.70;38.37;46.57;;
48967;Laerm;46511;53.148;8.204;2023-08-20T02:57:37;41.64;38.37;47.14;;
48967;Laerm;46511;53.148;8.204;2023-08-20T03:00:09;41.88;37.88;45.01;;
48967;Laerm;46511;53.148;8.204;2023-08-20T03:02:42;41.64;38.52;45.20;;
48967;Laerm;46511;53.148;8.204;2023-08-20T03:05:13;41.39;37.52;48.00;;
48967;Laerm;46511;53.148;8.204;2023-08-20T03:07:45;42.11;38.21;51.31;;
48967;Laerm;46511;53.148;8.204;2023-08-20T03:10:17;42.70;38.52;57.78;;
48967;Laerm;46511;53.148;8.204;2023-08-20T03:12:48;41.97;38.67;46.25;;
48967;Laerm;46511;53.148;8.204;2023-08-20T03:15:20;41.83;39.21;46.10;;
48967;Laerm;46511;53.148;8.204;2023-08-20T03:17:51;42.51;39.34;47.52;;
48967;Laerm;46511;53.148;8.204;2023-08-20T03:20:25;42.27;39.81;47.13;;
48967;Laerm;46511;53.148;8.204;2023-08-20T03:22:56;48.71;39.46;63.41;;
48967;Laerm;46511;53.148;8.204;2023-08-20T03:25:28;42.20;38.81;49.06;;
48967;Laerm;46511;53.148;8.204;2023-08-20T03:27:59;47.62;39.21;68.46;;
48967;Laerm;46511;53.148;8.204;2023-08-20T03:30:31;43.77;39.58;58.38;;
48967;Laerm;46511;53.148;8.204;2023-08-20T03:33:02;41.86;38.81;46.28;;
48967;Laerm;46511;53.148;8.204;2023-08-20T03:35:34;42.71;39.58;45.91;;
48967;Laerm;46511;53.148;8.204;2023-08-20T03:38:05;42.98;40.23;54.75;;
48967;Laerm;46511;53.148;8.204;2023-08-20T03:40:36;43.08;39.92;48.13;;
48967;Laerm;46511;53.148;8.204;2023-08-20T03:43:08;46.52;40.62;59.06;;
48967;Laerm;46511;53.148;8.204;2023-08-20T03:45:39;44.36;40.33;57.35;;
48967;Laerm;46511;53.148;8.204;2023-08-20T03:48:10;42.88;39.70;46.59;;
48967;Laerm;46511;53.148;8.204;2023-08-20T03:50:37;53.67;39.34;70.19;;
48967;Laerm;46511;53.148;8.204;2023-08-20T03:53:08;43.27;39.46;50.53;;
48967;Laerm;46511;53.148;8.204;2023-08-20T03:55:39;42.91;39.92;54.12;;
48967;Laerm;46511;53.148;8.204;2023-08-20T03:58:10;54.06;40.53;68.85;;
48967;Laerm;46511;53.148;8.204;2023-08-20T04:00:44;43.99;40.03;54.19;;
48967;Laerm;46511;53.148;8.204;2023-08-20T04:03:16;44.07;39.92;54.96;;
48967;Laerm;46511;53.148;8.204;2023-08-20T04:05:50;43.19;39.70;59.70;;
48967;Laerm;46511;53.148;8.204;2023-08-20T04:08:22;47.41;40.03;60.76;;
48967;Laerm;46511;53.148;8.204;2023-08-20T04:10:54;44.49;40.03;62.87;;
48967;Laerm;46511;53.148;8.204;2023-08-20T04:13:25;44.02;39.58;58.02;;
48967;Laerm;46511;53.148;8.204;2023-08-20T04:15:51;43.14;39.58;53.65;;
48967;Laerm;46511;53.148;8.204;2023-08-20T04:18:22;43.41;39.70;51.51;;
48967;Laerm;46511;53.148;8.204;2023-08-20T04:20:54;45.24;40.53;57.55;;
48967;Laerm;46511;53.148;8.204;2023-08-20T04:23:26;43.84;39.89;48.10;;
48967;Laerm;46511;53.148;8.204;2023-08-20T04:25:57;43.23;39.58;54.29;;
48967;Laerm;46511;53.148;8.204;2023-08-20T04:28:24;50.75;40.43;64.26;;
48967;Laerm;46511;53.148;8.204;2023-08-20T04:30:55;44.11;40.71;53.83;;
48967;Laerm;46511;53.148;8.204;2023-08-20T04:33:27;44.13;40.98;50.03;;
48967;Laerm;46511;53.148;8.204;2023-08-20T04:35:58;47.10;41.22;66.63;;
48967;Laerm;46511;53.148;8.204;2023-08-20T04:38:30;47.96;40.33;62.87;;
48967;Laerm;46511;53.148;8.204;2023-08-20T04:41:01;42.82;39.92;46.20;;
48967;Laerm;46511;53.148;8.204;2023-08-20T04:43:32;43.56;38.37;56.86;;
48967;Laerm;46511;53.148;8.204;2023-08-20T04:46:03;43.22;38.67;48.64;;
48967;Laerm;46511;53.148;8.204;2023-08-20T04:48:35;51.61;40.03;68.32;;
48967;Laerm;46511;53.148;8.204;2023-08-20T04:51:01;43.13;38.81;48.28;;
48967;Laerm;46511;53.148;8.204;2023-08-20T04:53:32;48.31;39.78;63.25;;
48967;Laerm;46511;53.148;8.204;2023-08-20T04:56:04;50.12;39.92;66.27;;
48967;Laerm;46511;53.148;8.204;2023-08-20T04:58:35;43.22;39.92;54.95;;
48967;Laerm;46511;53.148;8.204;2023-08-20T05:01:06;43.01;39.81;46.59;;
48967;Laerm;46511;53.148;8.204;2023-08-20T05:03:34;59.14;39.34;79.98;;
48967;Laerm;46511;53.148;8.204;2023-08-20T05:06:06;42.90;39.81;48.51;;
48967;Laerm;46511;53.148;8.204;2023-08-20T05:08:37;45.94;40.23;57.93;;
48967;Laerm;46511;53.148;8.204;2023-08-20T05:11:08;43.22;40.03;48.28;;
48967;Laerm;46511;53.148;8.204;2023-08-20T05:13:40;49.23;41.06;65.08;;
48967;Laerm;46511;53.148;8.204;2023-08-20T05:16:11;50.13;41.46;66.04;;
48967;Laerm;46511;53.148;8.204;2023-08-20T05:18:42;50.58;40.03;64.31;;
48967;Laerm;46511;53.148;8.204;2023-08-20T05:21:14;54.22;40.71;71.17;;
48967;Laerm;46511;53.148;8.204;2023-08-20T05:23:45;47.86;39.70;62.48;;
48967;Laerm;46511;53.148;8.204;2023-08-20T05:26:16;43.52;40.43;53.29;;
48967;Laerm;46511;53.148;8.204;2023-08-20T05:28:47;43.71;40.23;49.25;;
48967;Laerm;46511;53.148;8.204;2023-08-20T05:31:19;48.71;40.98;66.50;;
48967;Laerm;46511;53.148;8.204;2023-08-20T05:33:50;43.41;40.62;50.36;;
48967;Laerm;46511;53.148;8.204;2023-08-20T05:36:23;48.72;41.82;61.68;;
48967;Laerm;46511;53.148;8.204;2023-08-20T05:38:54;44.43;41.75;54.45;;
48967;Laerm;46511;53.148;8.204;2023-08-20T05:41:26;57.24;41.06;73.85;;
48967;Laerm;46511;53.148;8.204;2023-08-20T05:43:57;48.86;41.38;64.04;;
48967;Laerm;46511;53.148;8.204;2023-08-20T05:46:28;47.23;41.06;60.81;;
48967;Laerm;46511;53.148;8.204;2023-08-20T05:49:00;44.35;40.80;53.52;;
48967;Laerm;46511;53.148;8.204;2023-08-20T05:51:31;48.24;39.08;62.63;;
48967;Laerm;46511;53.148;8.204;2023-08-20T05:54:03;48.47;39.70;64.81;;
48967;Laerm;46511;53.148;8.204;2023-08-20T05:56:34;43.94;40.53;55.95;;
48967;Laerm;46511;53.148;8.204;2023-08-20T05:59:05;43.56;40.13;48.87;;
48967;Laerm;46511;53.148;8.204;2023-08-20T06:01:32;46.65;40.71;64.71;;
48967;Laerm;46511;53.148;8.204;2023-08-20T06:04:03;43.23;40.98;53.33;;
48967;Laerm;46511;53.148;8.204;2023-08-20T06:06:30;45.27;40.71;53.76;;
48967;Laerm;46511;53.148;8.204;2023-08-20T06:09:01;48.18;40.03;63.40;;
48967;Laerm;46511;53.148;8.204;2023-08-20T06:11:32;46.94;39.81;70.53;;
48967;Laerm;46511;53.148;8.204;2023-08-20T06:14:04;51.52;40.13;70.15;;
48967;Laerm;46511;53.148;8.204;2023-08-20T06:16:35;42.85;40.62;46.07;;
48967;Laerm;46511;53.148;8.204;2023-08-20T06:19:06;47.32;40.89;60.39;;
48967;Laerm;46511;53.148;8.204;2023-08-20T06:21:38;55.77;41.30;68.38;;
48967;Laerm;46511;53.148;8.204;2023-08-20T06:24:09;47.44;40.80;63.47;;
48967;Laerm;46511;53.148;8.204;2023-08-20T06:26:40;43.07;39.99;48.94;;
48967;Laerm;46511;53.148;8.204;2023-08-20T06:29:14;43.00;40.43;50.56;;
48967;Laerm;46511;53.148;8.204;2023-08-20T06:31:46;49.41;41.22;65.11;;
48967;Laerm;46511;53.148;8.204;2023-08-20T06:34:17;46.83;40.43;62.91;;
48967;Laerm;46511;53.148;8.204;2023-08-20T06:36:49;49.00;40.62;63.12;;
48967;Laerm;46511;53.148;8.204;2023-08-20T06:39:20;50.44;40.03;62.75;;
48967;Laerm;46511;53.148;8.204;2023-08-20T06:41:51;53.59;40.43;68.39;;
48967;Laerm;46511;53.148;8.204;2023-08-20T06:44:23;42.69;40.13;48.25;;
48967;Laerm;46511;53.148;8.204;2023-08-20T06:46:49;47.43;40.23;64.08;;
48967;Laerm;46511;53.148;8.204;2023-08-20T06:49:20;52.62;39.46;64.14;;
48967;Laerm;46511;53.148;8.204;2023-08-20T06:51:47;46.66;40.33;61.54;;
48967;Laerm;46511;53.148;8.204;2023-08-20T06:54:18;42.65;37.88;53.04;;
48967;Laerm;46511;53.148;8.204;2023-08-20T06:56:49;43.88;39.34;63.26;;
48967;Laerm;46511;53.148;8.204;2023-08-20T06:59:20;52.23;40.80;67.31;;
48967;Laerm;46511;53.148;8.204;2023-08-20T07:01:52;47.65;38.52;68.74;;
48967;Laerm;46511;53.148;8.204;2023-08-20T07:04:23;47.83;38.37;63.43;;
48967;Laerm;46511;53.148;8.204;2023-08-20T07:06:55;51.21;38.67;63.34;;
48967;Laerm;46511;53.148;8.204;2023-08-20T07:09:26;44.84;38.81;58.72;;
48967;Laerm;46511;53.148;8.204;2023-08-20T07:11:57;66.87;39.34;83.98;;
48967;Laerm;46511;53.148;8.204;2023-08-20T07:14:29;47.83;38.21;64.73;;
48967;Laerm;46511;53.148;8.204;2023-08-20T07:16:55;42.07;37.70;50.85;;
48967;Laerm;46511;53.148;8.204;2023-08-20T07:19:26;44.27;38.52;57.61;;
48967;Laerm;46511;53.148;8.204;2023-08-20T07:21:58;56.98;39.08;74.80;;
48967;Laerm;46511;53.148;8.204;2023-08-20T07:24:29;50.24;39.70;63.47;;
48967;Laerm;46511;53.148;8.204;2023-08-20T07:27:05;46.60;38.37;64.74;;
48967;Laerm;46511;53.148;8.204;2023-08-20T07:29:44;42.10;38.02;48.81;;
48967;Laerm;46511;53.148;8.204;2023-08-20T07:32:15;51.23;38.37;64.66;;
48967;Laerm;46511;53.148;8.204;2023-08-20T07:34:47;49.41;39.08;63.03;;
48967;Laerm;46511;53.148;8.204;2023-08-20T07:37:18;49.37;40.23;77.63;;
48967;Laerm;46511;53.148;8.204;2023-08-20T07:39:44;56.74;39.92;70.15;;
48967;Laerm;46511;53.148;8.204;2023-08-20T07:42:11;48.78;40.98;58.51;;
48967;Laerm;46511;53.148;8.204;2023-08-20T07:44:38;48.32;39.21;60.98;;
48967;Laerm;46511;53.148;8.204;2023-08-20T07:47:09;51.48;40.43;65.98;;
48967;Laerm;46511;53.148;8.204;2023-08-20T07:49:36;58.29;39.35;72.83;;
48967;Laerm;46511;53.148;8.204;2023-08-20T07:52:03;42.80;39.21;50.92;;
48967;Laerm;46511;53.148;8.204;2023-08-20T07:54:30;53.52;40.13;62.53;;
48967;Laerm;46511;53.148;8.204;2023-08-20T07:56:58;43.55;40.62;53.75;;
48967;Laerm;46511;53.148;8.204;2023-08-20T07:59:25;52.87;40.80;65.77;;
48967;Laerm;46511;53.148;8.204;2023-08-20T08:01:51;42.83;38.95;50.39;;
48967;Laerm;46511;53.148;8.204;2023-08-20T08:04:22;52.37;40.23;65.52;;
48967;Laerm;46511;53.148;8.204;2023-08-20T08:06:54;52.88;40.13;64.21;;
48967;Laerm;46511;53.148;8.204;2023-08-20T08:09:29;48.92;38.81;64.30;;
48967;Laerm;46511;53.148;8.204;2023-08-20T08:11:57;51.64;38.05;64.99;;
48967;Laerm;46511;53.148;8.204;2023-08-20T08:14:29;46.44;40.62;60.24;;
48967;Laerm;46511;53.148;8.204;2023-08-20T08:17:00;51.89;41.14;65.90;;
48967;Laerm;46511;53.148;8.204;2023-08-20T08:19:32;51.15;41.30;66.26;;
48967;Laerm;46511;53.148;8.204;2023-08-20T08:22:03;57.21;42.76;71.89;;
48967;Laerm;46511;53.148;8.204;2023-08-20T08:24:36;45.91;40.62;58.11;;
48967;Laerm;46511;53.148;8.204;2023-08-20T08:27:07;47.47;41.22;66.66;;
48967;Laerm;46511;53.148;8.204;2023-08-20T08:29:38;51.87;40.98;64.36;;
48967;Laerm;46511;53.148;8.204;2023-08-20T08:32:09;50.61;40.62;63.64;;
48967;Laerm;46511;53.148;8.204;2023-08-20T08:34:36;50.80;41.14;62.02;;
48967;Laerm;46511;53.148;8.204;2023-08-20T08:37:07;42.79;40.62;49.03;;
48967;Laerm;46511;53.148;8.204;2023-08-20T08:39:38;55.23;39.70;68.46;;
48967;Laerm;46511;53.148;8.204;2023-08-20T08:42:10;54.69;40.98;71.28;;
48967;Laerm;46511;53.148;8.204;2023-08-20T08:44:43;43.49;41.33;48.76;;
48967;Laerm;46511;53.148;8.204;2023-08-20T08:47:16;47.02;41.46;61.03;;
48967;Laerm;46511;53.148;8.204;2023-08-20T08:49:44;48.88;40.80;61.55;;
48967;Laerm;46511;53.148;8.204;2023-08-20T08:52:17;52.38;40.96;65.39;;
48967;Laerm;46511;53.148;8.204;2023-08-20T08:54:51;46.27;40.43;57.54;;
48967;Laerm;46511;53.148;8.204;2023-08-20T08:57:22;52.27;40.53;68.22;;
48967;Laerm;46511;53.148;8.204;2023-08-20T08:59:54;47.92;40.23;62.21;;
48967;Laerm;46511;53.148;8.204;2023-08-20T09:02:25;49.98;41.30;61.98;;
48967;Laerm;46511;53.148;8.204;2023-08-20T09:04:52;46.75;41.68;61.42;;
48967;Laerm;46511;53.148;8.204;2023-08-20T09:07:23;52.48;41.75;63.04;;
48967;Laerm;46511;53.148;8.204;2023-08-20T09:09:58;52.46;40.23;66.44;;
48967;Laerm;46511;53.148;8.204;2023-08-20T09:12:25;52.03;41.14;72.47;;
48967;Laerm;46511;53.148;8.204;2023-08-20T09:14:56;47.33;40.13;59.09;;
48967;Laerm;46511;53.148;8.204;2023-08-20T09:17:36;50.81;41.06;62.17;;
48967;Laerm;46511;53.148;8.204;2023-08-20T09:20:03;43.39;40.33;54.22;;
48967;Laerm;46511;53.148;8.204;2023-08-20T09:22:36;57.38;41.89;72.73;;
48967;Laerm;46511;53.148;8.204;2023-08-20T09:25:15;50.74;41.89;66.17;;
48967;Laerm;46511;53.148;8.204;2023-08-20T09:27:46;53.11;41.82;64.49;;
48967;Laerm;46511;53.148;8.204;2023-08-20T09:30:18;43.49;40.43;51.36;;
48967;Laerm;46511;53.148;8.204;2023-08-20T09:33:04;46.22;41.46;59.24;;
48967;Laerm;46511;53.148;8.204;2023-08-20T09:35:36;44.87;39.92;63.51;;
48967;Laerm;46511;53.148;8.204;2023-08-20T09:38:08;47.01;40.71;60.57;;
48967;Laerm;46511;53.148;8.204;2023-08-20T09:40:40;54.28;39.92;71.12;;
48967;Laerm;46511;53.148;8.204;2023-08-20T09:43:07;51.38;40.03;63.54;;
48967;Laerm;46511;53.148;8.204;2023-08-20T09:45:40;53.33;37.70;68.33;;
48967;Laerm;46511;53.148;8.204;2023-08-20T09:48:17;50.50;39.46;72.21;;
48967;Laerm;46511;53.148;8.204;2023-08-20T09:50:53;53.04;40.62;64.79;;
48967;Laerm;46511;53.148;8.204;2023-08-20T09:53:34;51.69;40.13;72.97;;
48967;Laerm;46511;53.148;8.204;2023-08-20T09:56:09;49.25;40.13;72.82;;
48967;Laerm;46511;53.148;8.204;2023-08-20T09:58:41;52.96;42.06;63.30;;
48967;Laerm;46511;53.148;8.204;2023-08-20T10:01:13;61.89;43.14;81.99;;
48967;Laerm;46511;53.148;8.204;2023-08-20T10:03:45;52.04;41.61;67.07;;
48967;Laerm;46511;53.148;8.204;2023-08-20T10:06:17;51.17;38.81;64.20;;
48967;Laerm;46511;53.148;8.204;2023-08-20T10:08:50;62.29;42.59;75.37;;
48967;Laerm;46511;53.148;8.204;2023-08-20T10:11:22;46.15;39.34;56.40;;
48967;Laerm;46511;53.148;8.204;2023-08-20T10:13:53;48.49;41.33;60.72;;
48967;Laerm;46511;53.148;8.204;2023-08-20T10:16:27;53.04;41.61;67.11;;
48967;Laerm;46511;53.148;8.204;2023-08-20T10:19:05;54.13;40.18;66.02;;
48967;Laerm;46511;53.148;8.204;2023-08-20T10:21:43;53.89;41.53;71.38;;
48967;Laerm;46511;53.148;8.204;2023-08-20T10:24:18;54.26;41.61;66.93;;
48967;Laerm;46511;53.148;8.204;2023-08-20T10:26:48;54.21;41.68;67.65;;
48967;Laerm;46511;53.148;8.204;2023-08-20T10:29:40;51.27;40.33;62.09;;
48967;Laerm;46511;53.148;8.204;2023-08-20T10:32:13;52.49;39.58;66.17;;
48967;Laerm;46511;53.148;8.204;2023-08-20T10:34:50;49.95;39.81;65.09;;
48967;Laerm;46511;53.148;8.204;2023-08-20T10:37:27;47.83;40.53;63.82;;
48967;Laerm;46511;53.148;8.204;2023-08-20T10:40:04;50.89;38.37;67.25;;
48967;Laerm;46511;53.148;8.204;2023-08-20T10:42:41;49.56;38.67;62.14;;
48967;Laerm;46511;53.148;8.204;2023-08-20T10:45:11;55.29;41.53;69.18;;
48967;Laerm;46511;53.148;8.204;2023-08-20T10:47:43;49.98;40.33;61.31;;
48967;Laerm;46511;53.148;8.204;2023-08-20T10:50:19;54.52;40.98;69.69;;
48967;Laerm;46511;53.148;8.204;2023-08-20T10:52:55;48.88;40.23;62.34;;
48967;Laerm;46511;53.148;8.204;2023-08-20T10:55:22;49.25;40.71;60.74;;
48967;Laerm;46511;53.148;8.204;2023-08-20T10:57:58;52.45;41.06;64.13;;
48967;Laerm;46511;53.148;8.204;2023-08-20T11:00:32;51.26;40.98;61.85;;
48967;Laerm;46511;53.148;8.204;2023-08-20T11:03:04;45.47;41.06;62.78;;
48967;Laerm;46511;53.148;8.204;2023-08-20T11:05:32;52.19;42.22;65.70;;
48967;Laerm;46511;53.148;8.204;2023-08-20T11:08:03;48.62;40.80;58.56;;
48967;Laerm;46511;53.148;8.204;2023-08-20T11:10:34;50.35;40.71;66.38;;
48967;Laerm;46511;53.148;8.204;2023-08-20T11:13:05;56.26;42.16;73.71;;
48967;Laerm;46511;53.148;8.204;2023-08-20T11:15:37;49.66;41.53;61.48;;
48967;Laerm;46511;53.148;8.204;2023-08-20T11:18:09;53.26;41.68;62.41;;
48967;Laerm;46511;53.148;8.204;2023-08-20T11:20:41;55.29;39.58;72.66;;
48967;Laerm;46511;53.148;8.204;2023-08-20T11:23:12;49.07;40.98;62.46;;
48967;Laerm;46511;53.148;8.204;2023-08-20T11:25:44;52.61;42.03;74.58;;
48967;Laerm;46511;53.148;8.204;2023-08-20T11:28:15;55.12;43.72;67.17;;
48967;Laerm;46511;53.148;8.204;2023-08-20T11:30:49;50.23;41.38;61.58;;
48967;Laerm;46511;53.148;8.204;2023-08-20T11:33:41;53.20;41.53;68.24;;
48967;Laerm;46511;53.148;8.204;2023-08-20T11:36:12;53.71;42.16;64.25;;
48967;Laerm;46511;53.148;8.204;2023-08-20T11:38:52;56.08;40.43;76.06;;
48967;Laerm;46511;53.148;8.204;2023-08-20T11:41:22;54.78;41.96;74.07;;
48967;Laerm;46511;53.148;8.204;2023-08-20T11:43:55;52.12;41.30;68.03;;
48967;Laerm;46511;53.148;8.204;2023-08-20T11:46:23;49.98;40.89;62.79;;
48967;Laerm;46511;53.148;8.204;2023-08-20T11:49:08;47.51;40.71;62.31;;
48967;Laerm;46511;53.148;8.204;2023-08-20T11:51:43;52.32;40.62;69.10;;
48967;Laerm;46511;53.148;8.204;2023-08-20T11:54:17;54.26;40.33;65.38;;
48967;Laerm;46511;53.148;8.204;2023-08-20T11:56:50;44.22;39.58;50.98;;
48967;Laerm;46511;53.148;8.204;2023-08-20T11:59:19;51.06;41.06;65.85;;
48967;Laerm;46511;53.148;8.204;2023-08-20T12:01:52;43.91;39.70;63.26;;
48967;Laerm;46511;53.148;8.204;2023-08-20T12:04:25;49.38;41.22;61.83;;
48967;Laerm;46511;53.148;8.204;2023-08-20T12:07:09;43.61;40.98;48.64;;
48967;Laerm;46511;53.148;8.204;2023-08-20T12:09:41;52.93;40.62;64.02;;
48967;Laerm;46511;53.148;8.204;2023-08-20T12:12:12;53.16;40.62;64.43;;
48967;Laerm;46511;53.148;8.204;2023-08-20T12:14:44;48.92;41.06;63.49;;
48967;Laerm;46511;53.148;8.204;2023-08-20T12:17:18;54.58;41.68;68.26;;
48967;Laerm;46511;53.148;8.204;2023-08-20T12:19:50;49.39;41.68;63.44;;
48967;Laerm;46511;53.148;8.204;2023-08-20T12:22:21;46.87;40.13;57.54;;
48967;Laerm;46511;53.148;8.204;2023-08-20T12:24:53;54.44;41.14;69.94;;
48967;Laerm;46511;53.148;8.204;2023-08-20T12:27:25;45.89;41.75;55.31;;
48967;Laerm;46511;53.148;8.204;2023-08-20T12:29:56;49.56;41.46;61.02;;
48967;Laerm;46511;53.148;8.204;2023-08-20T12:32:27;50.28;41.06;63.74;;
48967;Laerm;46511;53.148;8.204;2023-08-20T12:34:59;55.02;42.88;64.62;;
48967;Laerm;46511;53.148;8.204;2023-08-20T12:37:25;56.95;41.82;69.55;;
48967;Laerm;46511;53.148;8.204;2023-08-20T12:39:59;55.74;42.29;69.53;;
48967;Laerm;46511;53.148;8.204;2023-08-20T12:42:30;44.69;42.03;61.41;;
48967;Laerm;46511;53.148;8.204;2023-08-20T12:45:02;51.11;41.46;69.12;;
48967;Laerm;46511;53.148;8.204;2023-08-20T12:47:34;52.37;41.61;65.87;;
48967;Laerm;46511;53.148;8.204;2023-08-20T12:50:11;50.78;41.22;61.79;;
48967;Laerm;46511;53.148;8.204;2023-08-20T12:52:54;51.95;42.93;65.16;;
48967;Laerm;46511;53.148;8.204;2023-08-20T12:55:26;51.81;41.46;66.49;;
48967;Laerm;46511;53.148;8.204;2023-08-20T12:57:58;51.18;42.06;67.17;;
48967;Laerm;46511;53.148;8.204;2023-08-20T13:00:30;51.42;41.82;61.52;;
48967;Laerm;46511;53.148;8.204;2023-08-20T13:03:01;48.55;41.53;62.43;;
48967;Laerm;46511;53.148;8.204;2023-08-20T13:05:30;45.73;40.71;56.82;;
48967;Laerm;46511;53.148;8.204;2023-08-20T13:08:02;52.04;40.33;63.49;;
48967;Laerm;46511;53.148;8.204;2023-08-20T13:10:34;48.72;39.46;61.06;;
48967;Laerm;46511;53.148;8.204;2023-08-20T13:13:09;49.75;40.98;65.79;;
48967;Laerm;46511;53.148;8.204;2023-08-20T13:15:41;49.05;40.89;63.46;;
48967;Laerm;46511;53.148;8.204;2023-08-20T13:18:12;48.59;41.61;62.10;;
48967;Laerm;46511;53.148;8.204;2023-08-20T13:20:45;50.57;42.03;63.20;;
48967;Laerm;46511;53.148;8.204;2023-08-20T13:23:16;57.39;42.29;74.40;;
48967;Laerm;46511;53.148;8.204;2023-08-20T13:25:53;50.01;41.82;64.49;;
48967;Laerm;46511;53.148;8.204;2023-08-20T13:28:25;53.31;41.38;64.77;;
48967;Laerm;46511;53.148;8.204;2023-08-20T13:30:56;53.55;42.59;68.58;;
48967;Laerm;46511;53.148;8.204;2023-08-20T13:33:28;53.31;41.96;67.87;;
48967;Laerm;46511;53.148;8.204;2023-08-20T13:36:00;49.89;41.22;61.12;;
48967;Laerm;46511;53.148;8.204;2023-08-20T13:38:31;48.14;40.89;68.73;;
48967;Laerm;46511;53.148;8.204;2023-08-20T13:41:03;58.13;41.30;75.08;;
48967;Laerm;46511;53.148;8.204;2023-08-20T13:43:34;52.99;42.03;68.36;;
48967;Laerm;46511;53.148;8.204;2023-08-20T13:46:01;54.02;41.75;66.34;;
48967;Laerm;46511;53.148;8.204;2023-08-20T13:48:27;46.28;40.62;61.00;;
48967;Laerm;46511;53.148;8.204;2023-08-20T13:50:54;52.42;40.89;64.72;;
48967;Laerm;46511;53.148;8.204;2023-08-20T13:53:20;57.16;40.98;71.65;;
48967;Laerm;46511;53.148;8.204;2023-08-20T13:55:47;52.50;40.98;62.75;;
48967;Laerm;46511;53.148;8.204;2023-08-20T13:58:18;51.20;40.98;61.35;;
48967;Laerm;46511;53.148;8.204;2023-08-20T14:00:44;47.06;41.61;60.38;;
48967;Laerm;46511;53.148;8.204;2023-08-20T14:03:11;51.15;42.16;63.28;;
48967;Laerm;46511;53.148;8.204;2023-08-20T14:05:42;46.07;39.21;57.59;;
48967;Laerm;46511;53.148;8.204;2023-08-20T14:08:16;51.41;41.75;61.54;;
48967;Laerm;46511;53.148;8.204;2023-08-20T14:10:47;48.34;41.06;63.40;;
48967;Laerm;46511;53.148;8.204;2023-08-20T14:13:13;46.44;40.89;58.50;;